createdAt,value
2018-04-11T00:01:13.271Z,100557.83
2018-04-11T00:03:41.318Z,100565.10
2018-04-11T00:06:09.041Z,100557.12
2018-04-11T00:08:36.880Z,100556.88
2018-04-11T00:11:04.599Z,100579.06
2018-04-11T00:13:32.212Z,100587.91
2018-04-11T00:15:59.806Z,100603.91
2018-04-11T00:18:28.821Z,100605.42
2018-04-11T00:20:56.508Z,100588.48
2018-04-11T00:23:24.187Z,100573.58
2018-04-11T00:25:52.232Z,100567.75
2018-04-11T00:28:20.085Z,100578.97
2018-04-11T00:30:47.826Z,100595.28
2018-04-11T00:33:15.513Z,100608.77
2018-04-11T00:35:43.122Z,100607.82
2018-04-11T00:38:11.136Z,100617.61
2018-04-11T00:40:39.004Z,100612.83
2018-04-11T00:43:06.615Z,100596.35
2018-04-11T00:45:34.255Z,100599.03
2018-04-11T00:48:02.086Z,100607.44
2018-04-11T00:50:29.983Z,100602.17
2018-04-11T00:53:09.334Z,100611.46
2018-04-11T00:55:37.060Z,100609.16
2018-04-11T00:58:04.720Z,100604.81
2018-04-11T01:00:32.332Z,100609.03
2018-04-11T01:03:00.034Z,100594.23
2018-04-11T01:05:27.661Z,100595.53
2018-04-11T01:07:55.282Z,100603.77
2018-04-11T01:10:23.137Z,100611.64
2018-04-11T01:12:51.551Z,100612.90
2018-04-11T01:15:19.136Z,100612.52
2018-04-11T01:17:46.742Z,100608.95
2018-04-11T01:20:14.502Z,100606.34
2018-04-11T01:22:42.089Z,100601.09
2018-04-11T01:25:09.754Z,100596.30
2018-04-11T01:27:37.794Z,100598.97
2018-04-11T01:30:05.657Z,100603.75
2018-04-11T01:32:37.190Z,100608.50
2018-04-11T01:35:04.786Z,100606.94
2018-04-11T01:37:33.067Z,100613.58
2018-04-11T01:40:00.746Z,100607.31
2018-04-11T01:42:28.344Z,100609.77
2018-04-11T01:44:56.247Z,100624.20
2018-04-11T01:47:23.907Z,100616.03
2018-04-11T01:49:51.528Z,100615.67
2018-04-11T01:52:19.307Z,100614.32
2018-04-11T01:54:47.231Z,100616.50
2018-04-11T01:57:14.831Z,100617.45
2018-04-11T01:59:42.583Z,100622.12
2018-04-11T02:02:10.239Z,100630.25
2018-04-11T02:04:38.667Z,100630.91
2018-04-11T02:07:06.269Z,100638.47
2018-04-11T02:09:33.918Z,100634.97
2018-04-11T02:12:01.654Z,100629.52
2018-04-11T02:14:29.631Z,100630.00
2018-04-11T02:16:57.318Z,100630.45
2018-04-11T02:19:24.926Z,100625.52
2018-04-11T02:21:52.665Z,100629.05
2018-04-11T02:24:20.342Z,100633.90
2018-04-11T02:26:48.019Z,100634.27
2018-04-11T02:29:15.670Z,100635.67
2018-04-11T02:31:43.272Z,100635.50
2018-04-11T02:34:10.931Z,100642.27
2018-04-11T02:36:38.607Z,100653.31
2018-04-11T02:39:06.966Z,100662.87
2018-04-11T02:41:34.831Z,100664.70
2018-04-11T02:44:02.487Z,100673.23
2018-04-11T02:46:30.165Z,100673.53
2018-04-11T02:48:57.770Z,100684.81
2018-04-11T02:51:25.399Z,100678.80
2018-04-11T02:53:53.453Z,100682.59
2018-04-11T02:56:21.120Z,100683.20
2018-04-11T02:58:48.760Z,100675.55
2018-04-11T03:01:16.391Z,100671.85
2018-04-11T03:03:44.018Z,100672.69
2018-04-11T03:06:11.663Z,100680.20
2018-04-11T03:08:39.356Z,100675.34
2018-04-11T03:11:07.294Z,100672.31
2018-04-11T03:13:34.926Z,100668.41
2018-04-11T03:16:02.552Z,100670.03
2018-04-11T03:18:30.140Z,100664.09
2018-04-11T03:20:57.775Z,100674.55
2018-04-11T03:23:25.387Z,100675.49
2018-04-11T03:25:52.994Z,100669.50
2018-04-11T03:28:20.584Z,100673.55
2018-04-11T03:30:48.532Z,100677.05
2018-04-11T03:33:16.135Z,100664.55
2018-04-11T03:35:43.759Z,100661.84
2018-04-11T03:38:11.385Z,100662.68
2018-04-11T03:40:39.026Z,100655.74
2018-04-11T03:43:06.688Z,100662.25
2018-04-11T03:45:34.314Z,100658.72
2018-04-11T03:48:01.924Z,100652.94
2018-04-11T03:50:29.938Z,100655.02
2018-04-11T03:52:57.636Z,100655.16
2018-04-11T03:55:25.244Z,100661.13
2018-04-11T03:57:54.035Z,100662.48
2018-04-11T04:00:22.293Z,100676.20
2018-04-11T04:02:50.367Z,100673.58
2018-04-11T04:05:18.573Z,100671.93
2018-04-11T04:07:46.655Z,100681.52
2018-04-11T04:10:14.534Z,100680.77
2018-04-11T04:12:42.378Z,100673.86
2018-04-11T04:15:21.729Z,100673.61
2018-04-11T04:18:01.484Z,100669.36
2018-04-11T04:20:36.882Z,100670.50
2018-04-11T04:23:04.526Z,100681.61
2018-04-11T04:25:32.185Z,100682.66
2018-04-11T04:27:59.803Z,100688.66
2018-04-11T04:30:27.889Z,100699.81
2018-04-11T04:32:55.586Z,100713.47
2018-04-11T04:35:23.217Z,100703.16
2018-04-11T04:37:51.168Z,100708.48
2018-04-11T04:40:18.767Z,100704.33
2018-04-11T04:42:46.366Z,100697.09
2018-04-11T04:45:14.012Z,100699.83
2018-04-11T04:47:41.650Z,100694.38
2018-04-11T04:50:09.561Z,100696.89
2018-04-11T04:52:37.207Z,100710.03
2018-04-11T04:55:04.856Z,100719.89
2018-04-11T04:57:32.447Z,100698.97
2018-04-11T05:00:00.381Z,100709.17
2018-04-11T05:02:27.997Z,100714.49
2018-04-11T05:04:55.688Z,100715.84
2018-04-11T05:07:23.673Z,100728.00
2018-04-11T05:09:51.293Z,100733.78
2018-04-11T05:12:18.918Z,100734.53
2018-04-11T05:14:46.544Z,100710.22
2018-04-11T05:17:14.485Z,100723.95
2018-04-11T05:19:42.303Z,100721.36
2018-04-11T05:22:09.965Z,100719.67
2018-04-11T05:24:37.671Z,100723.84
2018-04-11T05:27:05.321Z,100718.81
2018-04-11T05:29:32.954Z,100735.13
2018-04-11T05:32:01.208Z,100734.00
2018-04-11T05:34:28.807Z,100729.98
2018-04-11T05:36:56.404Z,100726.99
2018-04-11T05:39:24.156Z,100721.92
2018-04-11T05:41:51.906Z,100720.78
2018-04-11T05:44:19.835Z,100719.52
2018-04-11T05:46:47.730Z,100725.52
2018-04-11T05:49:15.322Z,100717.48
2018-04-11T05:51:43.333Z,100733.69
2018-04-11T05:54:10.941Z,100753.20
2018-04-11T05:56:38.646Z,100760.02
2018-04-11T05:59:06.310Z,100739.59
2018-04-11T06:01:33.937Z,100738.80
2018-04-11T06:04:01.527Z,100736.66
2018-04-11T06:06:29.197Z,100754.14
2018-04-11T06:08:56.863Z,100751.95
2018-04-11T06:11:24.501Z,100755.36
2018-04-11T06:13:52.098Z,100751.78
2018-04-11T06:16:19.725Z,100750.80
2018-04-11T06:18:47.427Z,100749.47
2018-04-11T06:21:15.056Z,100755.20
2018-04-11T06:23:42.707Z,100747.44
2018-04-11T06:26:10.309Z,100745.13
2018-04-11T06:28:37.960Z,100739.83
2018-04-11T06:31:05.640Z,100746.47
2018-04-11T06:33:33.213Z,100752.09
2018-04-11T06:36:00.825Z,100761.12
2018-04-11T06:38:28.421Z,100771.03
2018-04-11T06:40:56.056Z,100762.81
2018-04-11T06:43:23.652Z,100760.94
2018-04-11T06:45:51.689Z,100764.91
2018-04-11T06:48:19.358Z,100769.06
2018-04-11T06:50:46.953Z,100768.98
2018-04-11T06:53:14.577Z,100772.11
2018-04-11T06:55:42.175Z,100769.32
2018-04-11T06:58:09.840Z,100779.67
2018-04-11T07:00:37.782Z,100777.68
2018-04-11T07:03:05.397Z,100788.25
2018-04-11T07:05:33.177Z,100794.27
2018-04-11T07:08:01.075Z,100803.59
2018-04-11T07:10:28.785Z,100798.42
2018-04-11T07:12:56.397Z,100796.09
2018-04-11T07:15:24.028Z,100780.88
2018-04-11T07:17:51.926Z,100784.00
2018-04-11T07:20:19.889Z,100788.58
2018-04-11T07:22:47.500Z,100796.40
2018-04-11T07:25:15.088Z,100786.04
2018-04-11T07:27:42.979Z,100779.33
2018-04-11T07:30:10.581Z,100776.24
2018-04-11T07:32:38.220Z,100777.30
2018-04-11T07:35:06.079Z,100782.45
2018-04-11T07:37:34.030Z,100777.44
2018-04-11T07:40:01.717Z,100782.98
2018-04-11T07:42:29.350Z,100777.81
2018-04-11T07:44:56.977Z,100785.09
2018-04-11T07:47:24.638Z,100789.59
2018-04-11T07:49:52.254Z,100788.42
2018-04-11T07:52:19.966Z,100788.90
2018-04-11T07:54:47.704Z,100780.91
2018-04-11T07:57:15.556Z,100771.95
2018-04-11T07:59:43.719Z,100780.81
2018-04-11T08:02:11.997Z,100781.68
2018-04-11T08:04:39.797Z,100791.28
2018-04-11T08:07:07.410Z,100793.20
2018-04-11T08:09:35.001Z,100791.04
2018-04-11T08:12:02.727Z,100787.78
2018-04-11T08:14:30.385Z,100783.94
2018-04-11T08:16:58.123Z,100801.05
2018-04-11T08:19:26.045Z,100802.73
2018-04-11T08:21:54.014Z,100813.03
2018-04-11T08:24:21.706Z,100810.48
2018-04-11T08:26:49.611Z,100809.95
2018-04-11T08:29:17.533Z,100810.02
2018-04-11T08:31:45.155Z,100792.41
2018-04-11T08:34:12.785Z,100802.97
2018-04-11T08:36:40.451Z,100801.11
2018-04-11T08:39:08.304Z,100803.63
2018-04-11T08:41:36.728Z,100820.49
2018-04-11T08:44:04.361Z,100805.52
2018-04-11T08:46:31.945Z,100821.40
2018-04-11T08:48:59.649Z,100812.78
2018-04-11T08:51:27.255Z,100821.03
2018-04-11T08:53:54.849Z,100825.36
2018-04-11T08:56:22.470Z,100828.62
2018-04-11T08:58:50.079Z,100833.82
2018-04-11T09:01:17.710Z,100826.77
2018-04-11T09:03:45.317Z,100819.59
2018-04-11T09:06:12.947Z,100827.34
2018-04-11T09:08:40.606Z,100823.05
2018-04-11T09:11:08.313Z,100824.16
2018-04-11T09:13:36.010Z,100818.48
2018-04-11T09:16:03.615Z,100821.03
2018-04-11T09:18:31.308Z,100822.88
2018-04-11T09:20:59.322Z,100817.73
2018-04-11T09:23:26.944Z,100824.20
2018-04-11T09:25:54.547Z,100821.31
2018-04-11T09:28:22.238Z,100828.73
2018-04-11T09:30:50.764Z,100824.98
2018-04-11T09:33:18.420Z,100823.29
2018-04-11T09:35:46.032Z,100826.69
2018-04-11T09:38:13.654Z,100824.08
2018-04-11T09:40:41.272Z,100814.72
2018-04-11T09:43:08.978Z,100813.48
2018-04-11T09:45:36.638Z,100816.95
2018-04-11T09:48:04.240Z,100819.88
2018-04-11T09:50:31.826Z,100805.31
2018-04-11T09:52:59.465Z,100794.62
2018-04-11T09:55:27.079Z,100793.24
2018-04-11T09:57:54.690Z,100815.13
2018-04-11T10:00:22.331Z,100818.10
2018-04-11T10:02:55.632Z,100820.68
2018-04-11T10:05:23.231Z,100817.55
2018-04-11T10:07:51.268Z,100811.52
2018-04-11T10:10:18.885Z,100808.84
2018-04-11T10:12:46.914Z,100806.36
2018-04-11T10:15:14.883Z,100798.23
2018-04-11T10:17:42.479Z,100798.70
2018-04-11T10:20:10.111Z,100804.48
2018-04-11T10:22:37.796Z,100803.70
2018-04-11T10:25:06.149Z,100799.34
2018-04-11T10:27:33.746Z,100810.53
2018-04-11T10:30:01.443Z,100814.11
2018-04-11T10:32:29.071Z,100821.54
2018-04-11T10:34:56.888Z,100825.31
2018-04-11T10:37:24.597Z,100816.65
2018-04-11T10:39:52.269Z,100820.50
2018-04-11T10:42:19.877Z,100825.77
2018-04-11T10:44:47.905Z,100805.77
2018-04-11T10:47:15.503Z,100804.95
2018-04-11T10:49:43.163Z,100804.73
2018-04-11T10:52:10.793Z,100798.17
2018-04-11T10:54:38.415Z,100793.00
2018-04-11T10:57:06.070Z,100811.88
2018-04-11T10:59:33.730Z,100796.53
2018-04-11T11:02:01.347Z,100806.02
2018-04-11T11:04:28.980Z,100798.23
2018-04-11T11:06:56.918Z,100805.83
2018-04-11T11:09:24.555Z,100802.33
2018-04-11T11:11:52.158Z,100816.63
2018-04-11T11:14:19.777Z,100811.17
2018-04-11T11:16:47.454Z,100806.14
2018-04-11T11:19:15.433Z,100805.81
2018-04-11T11:21:43.073Z,100799.55
2018-04-11T11:24:10.897Z,100805.86
2018-04-11T11:26:38.728Z,100809.52
2018-04-11T11:29:06.360Z,100815.12
2018-04-11T11:31:35.195Z,100823.52
2018-04-11T11:34:02.949Z,100806.97
2018-04-11T11:36:30.614Z,100802.70
2018-04-11T11:38:58.270Z,100809.57
2018-04-11T11:41:26.016Z,100803.61
2018-04-11T11:43:54.081Z,100803.53
2018-04-11T11:46:21.688Z,100804.11
2018-04-11T11:48:49.298Z,100804.67
2018-04-11T11:51:16.923Z,100799.63
2018-04-11T11:53:44.602Z,100806.45
2018-04-11T11:56:12.518Z,100801.33
2018-04-11T11:58:40.489Z,100806.83
2018-04-11T12:01:08.101Z,100788.91
2018-04-11T12:03:35.706Z,100794.95
2018-04-11T12:06:03.584Z,100793.92
2018-04-11T12:08:31.189Z,100785.55
2018-04-11T12:10:58.893Z,100780.38
2018-04-11T12:13:26.492Z,100788.93
2018-04-11T12:15:54.107Z,100774.52
2018-04-11T12:18:21.708Z,100776.11
2018-04-11T12:20:49.335Z,100773.55
2018-04-11T12:23:17.387Z,100774.09
2018-04-11T12:25:45.289Z,100777.40
2018-04-11T12:28:12.898Z,100780.54
2018-04-11T12:30:40.569Z,100785.17
2018-04-11T12:33:08.481Z,100794.28
2018-04-11T12:35:36.108Z,100787.20
2018-04-11T12:38:03.691Z,100776.23
2018-04-11T12:40:31.396Z,100781.42
2018-04-11T12:42:59.058Z,100781.48
2018-04-11T12:45:26.936Z,100774.55
2018-04-11T12:47:54.526Z,100771.80
2018-04-11T12:50:22.274Z,100762.84
2018-04-11T12:52:49.874Z,100765.41
2018-04-11T12:55:17.464Z,100762.63
2018-04-11T12:57:45.115Z,100758.47
2018-04-11T13:00:12.888Z,100758.33
2018-04-11T13:02:40.553Z,100761.66
2018-04-11T13:05:08.162Z,100746.44
2018-04-11T13:07:35.789Z,100742.33
2018-04-11T13:10:03.444Z,100739.09
2018-04-11T13:12:31.090Z,100734.55
2018-04-11T13:14:58.713Z,100734.91
2018-04-11T13:17:26.576Z,100733.36
2018-04-11T13:19:54.206Z,100732.63
2018-04-11T13:22:21.849Z,100737.09
2018-04-11T13:24:49.477Z,100733.69
2018-04-11T13:27:17.137Z,100728.51
2018-04-11T13:29:44.738Z,100729.00
2018-04-11T13:32:12.350Z,100736.05
2018-04-11T13:34:39.972Z,100732.63
2018-04-11T13:37:07.621Z,100732.98
2018-04-11T13:39:35.570Z,100729.11
2018-04-11T13:42:03.196Z,100717.72
2018-04-11T13:44:30.811Z,100713.27
2018-04-11T13:46:58.463Z,100719.02
2018-04-11T13:49:26.131Z,100713.02
2018-04-11T13:51:53.747Z,100718.75
2018-04-11T13:54:21.423Z,100704.46
2018-04-11T13:56:49.029Z,100699.59
2018-04-11T13:59:16.677Z,100698.37
2018-04-11T14:01:44.547Z,100700.71
2018-04-11T14:04:12.505Z,100694.52
2018-04-11T14:06:40.402Z,100694.27
2018-04-11T14:09:08.048Z,100696.62
2018-04-11T14:11:36.090Z,100694.37
2018-04-11T14:14:03.970Z,100688.92
2018-04-11T14:16:31.615Z,100684.98
2018-04-11T14:18:59.212Z,100684.91
2018-04-11T14:21:27.062Z,100691.90
2018-04-11T14:23:54.924Z,100685.80
2018-04-11T14:26:22.611Z,100681.48
2018-04-11T14:28:50.206Z,100689.06
2018-04-11T14:31:17.824Z,100690.44
2018-04-11T14:33:45.516Z,100680.64
2018-04-11T14:36:13.150Z,100685.10
2018-04-11T14:38:40.824Z,100682.86
2018-04-11T14:41:08.468Z,100676.44
2018-04-11T14:43:36.065Z,100666.04
2018-04-11T14:46:03.930Z,100668.80
2018-04-11T14:48:31.556Z,100668.25
2018-04-11T14:50:59.196Z,100669.53
2018-04-11T14:53:26.814Z,100667.11
2018-04-11T14:55:54.480Z,100669.01
2018-04-11T14:58:22.407Z,100665.06
2018-04-11T15:00:50.102Z,100669.48
2018-04-11T15:03:17.726Z,100666.53
2018-04-11T15:05:45.310Z,100664.42
2018-04-11T15:08:12.947Z,100653.03
2018-04-11T15:10:40.533Z,100658.41
2018-04-11T15:13:08.203Z,100662.19
2018-04-11T15:15:35.964Z,100663.41
2018-04-11T15:18:03.562Z,100674.08
2018-04-11T15:20:31.180Z,100661.53
2018-04-11T15:22:58.813Z,100660.98
2018-04-11T15:25:26.504Z,100658.72
2018-04-11T15:27:54.102Z,100666.73
2018-04-11T15:30:21.812Z,100660.98
2018-04-11T15:32:49.415Z,100665.73
2018-04-11T15:35:17.082Z,100678.02
2018-04-11T15:37:44.704Z,100667.47
2018-04-11T15:40:12.311Z,100660.61
2018-04-11T15:42:40.222Z,100667.20
2018-04-11T15:45:07.881Z,100661.42
2018-04-11T15:47:35.599Z,100665.51
2018-04-11T15:50:03.206Z,100659.16
2018-04-11T15:52:30.904Z,100657.64
2018-04-11T15:54:58.511Z,100651.59
2018-04-11T15:57:26.152Z,100656.36
2018-04-11T15:59:53.753Z,100661.20
2018-04-11T16:02:21.436Z,100660.52
2018-04-11T16:04:49.392Z,100666.63
2018-04-11T16:07:16.987Z,100656.99
2018-04-11T16:09:44.728Z,100649.84
2018-04-11T16:12:12.756Z,100666.95
2018-04-11T16:14:40.444Z,100657.79
2018-04-11T16:17:08.205Z,100663.98
2018-04-11T16:19:35.905Z,100662.12
2018-04-11T16:22:03.577Z,100660.08
2018-04-11T16:24:31.215Z,100660.50
2018-04-11T16:26:58.872Z,100665.41
2018-04-11T16:29:27.317Z,100665.92
2018-04-11T16:31:54.919Z,100656.91
2018-04-11T16:34:22.679Z,100660.77
2018-04-11T16:36:50.279Z,100655.18
2018-04-11T16:39:17.892Z,100653.89
2018-04-11T16:41:45.970Z,100651.25
2018-04-11T16:44:13.936Z,100651.97
2018-04-11T16:46:41.640Z,100652.75
2018-04-11T16:49:09.236Z,100657.44
2018-04-11T16:51:36.901Z,100660.37
2018-04-11T16:54:04.538Z,100651.14
2018-04-11T16:56:32.876Z,100650.77
2018-04-11T16:59:00.504Z,100653.00
2018-04-11T17:01:28.171Z,100641.62
2018-04-11T17:03:55.814Z,100641.14
2018-04-11T17:06:23.407Z,100639.14
2018-04-11T17:08:51.013Z,100648.27
2018-04-11T17:11:18.731Z,100645.78
2018-04-11T17:13:46.591Z,100643.59
2018-04-11T17:16:14.331Z,100643.42
2018-04-11T17:18:42.038Z,100645.88
2018-04-11T17:21:21.558Z,100646.91
2018-04-11T17:24:01.362Z,100655.61
2018-04-11T17:26:40.779Z,100649.22
2018-04-11T17:29:20.233Z,100660.25
2018-04-11T17:31:47.905Z,100658.90
2018-04-11T17:34:15.561Z,100656.61
2018-04-11T17:36:43.231Z,100663.22
2018-04-11T17:39:11.297Z,100659.39
2018-04-11T17:41:38.923Z,100668.39
2018-04-11T17:44:06.552Z,100664.28
2018-04-11T17:46:34.212Z,100667.48
2018-04-11T17:49:01.876Z,100681.34
2018-04-11T17:51:29.490Z,100678.16
2018-04-11T17:53:57.376Z,100677.91
2018-04-11T17:56:25.060Z,100683.23
2018-04-11T17:58:52.659Z,100677.79
2018-04-11T18:01:20.632Z,100687.12
2018-04-11T18:03:48.260Z,100688.27
2018-04-11T18:06:15.909Z,100690.30
2018-04-11T18:08:43.597Z,100691.58
2018-04-11T18:11:11.188Z,100692.48
2018-04-11T18:13:38.806Z,100697.06
2018-04-11T18:16:06.411Z,100704.57
2018-04-11T18:18:34.067Z,100703.33
2018-04-11T18:21:01.659Z,100706.25
2018-04-11T18:23:29.329Z,100708.78
2018-04-11T18:25:57.037Z,100708.78
2018-04-11T18:28:24.771Z,100710.76
2018-04-11T18:30:52.453Z,100707.96
2018-04-11T18:33:20.088Z,100714.27
2018-04-11T18:35:47.939Z,100718.86
2018-04-11T18:38:15.540Z,100715.17
2018-04-11T18:40:43.206Z,100721.25
2018-04-11T18:43:10.898Z,100724.02
2018-04-11T18:45:38.571Z,100738.28
2018-04-11T18:48:06.509Z,100735.29
2018-04-11T18:50:34.133Z,100737.86
2018-04-11T18:53:01.807Z,100736.67
2018-04-11T18:55:29.410Z,100734.03
2018-04-11T18:57:57.043Z,100742.45
2018-04-11T19:00:24.750Z,100734.53
2018-04-11T19:02:52.423Z,100739.91
2018-04-11T19:05:23.225Z,100734.66
2018-04-11T19:07:50.969Z,100741.61
2018-04-11T19:10:18.576Z,100731.03
2018-04-11T19:12:46.312Z,100730.45
2018-04-11T19:15:14.269Z,100732.44
2018-04-11T19:17:41.902Z,100734.09
2018-04-11T19:20:09.673Z,100727.16
2018-04-11T19:22:37.355Z,100728.59
2018-04-11T19:25:05.051Z,100728.20
2018-04-11T19:27:33.001Z,100723.72
2018-04-11T19:30:00.704Z,100724.38
2018-04-11T19:32:28.381Z,100730.05
2018-04-11T19:34:56.007Z,100729.17
2018-04-11T19:37:23.763Z,100729.80
2018-04-11T19:39:51.368Z,100735.80
2018-04-11T19:42:19.001Z,100732.59
2018-04-11T19:44:46.697Z,100732.34
2018-04-11T19:47:14.766Z,100722.71
2018-04-11T19:49:42.486Z,100735.46
2018-04-11T19:52:10.127Z,100727.92
2018-04-11T19:54:38.208Z,100724.76
2018-04-11T19:57:06.112Z,100723.84
2018-04-11T19:59:33.828Z,100730.13
2018-04-11T20:02:01.482Z,100733.41
2018-04-11T20:04:29.128Z,100730.04
2018-04-11T20:06:56.970Z,100730.53
2018-04-11T20:09:24.612Z,100732.36
2018-04-11T20:11:52.331Z,100735.44
2018-04-11T20:14:19.992Z,100739.09
2018-04-11T20:16:47.623Z,100750.67
2018-04-11T20:19:15.307Z,100752.27
2018-04-11T20:21:43.803Z,100747.06
2018-04-11T20:24:11.939Z,100754.16
2018-04-11T20:26:40.088Z,100749.11
2018-04-11T20:29:08.389Z,100754.83
2018-04-11T20:31:37.347Z,100755.01
2018-04-11T20:34:05.566Z,100754.65
2018-04-11T20:36:33.186Z,100761.27
2018-04-11T20:39:01.152Z,100763.20
2018-04-11T20:41:31.984Z,100756.47
2018-04-11T20:43:59.711Z,100758.38
2018-04-11T20:46:27.342Z,100753.51
2018-04-11T20:48:55.028Z,100762.85
2018-04-11T20:51:22.667Z,100766.28
2018-04-11T20:53:50.255Z,100763.63
2018-04-11T20:56:17.893Z,100764.20
2018-04-11T20:58:45.585Z,100757.28
2018-04-11T21:01:13.434Z,100759.95
2018-04-11T21:03:41.091Z,100743.44
2018-04-11T21:06:09.230Z,100747.40
2018-04-11T21:08:36.926Z,100750.92
2018-04-11T21:11:04.853Z,100746.72
2018-04-11T21:13:32.566Z,100745.20
2018-04-11T21:16:00.225Z,100729.17
2018-04-11T21:18:27.847Z,100732.88
2018-04-11T21:20:55.530Z,100739.22
2018-04-11T21:23:23.119Z,100735.52
2018-04-11T21:25:50.732Z,100729.59
2018-04-11T21:28:18.367Z,100736.98
2018-04-11T21:30:46.004Z,100743.27
2018-04-11T21:33:13.676Z,100747.05
2018-04-11T21:35:41.257Z,100734.64
2018-04-11T21:38:08.928Z,100743.69
2018-04-11T21:40:36.897Z,100737.05
2018-04-11T21:43:04.537Z,100732.98
2018-04-11T21:45:32.139Z,100735.89
2018-04-11T21:47:59.802Z,100721.27
2018-04-11T21:50:27.416Z,100727.04
2018-04-11T21:52:55.321Z,100717.52
2018-04-11T21:55:23.286Z,100725.53
2018-04-11T21:57:50.962Z,100721.63
2018-04-11T22:00:18.537Z,100721.06
2018-04-11T22:02:46.192Z,100719.56
2018-04-11T22:05:13.857Z,100720.91
2018-04-11T22:07:41.440Z,100727.27
2018-04-11T22:10:09.042Z,100716.90
2018-04-11T22:12:36.628Z,100721.85
2018-04-11T22:15:04.286Z,100715.65
2018-04-11T22:17:31.867Z,100720.27
2018-04-11T22:19:59.512Z,100714.66
2018-04-11T22:22:27.152Z,100705.49
2018-04-11T22:24:54.733Z,100705.34
2018-04-11T22:27:25.553Z,100709.59
2018-04-11T22:29:55.176Z,100696.69
2018-04-11T22:32:23.613Z,100697.68
2018-04-11T22:34:52.865Z,100697.63
2018-04-11T22:37:20.561Z,100702.66
2018-04-11T22:39:48.230Z,100694.44
2018-04-11T22:42:16.155Z,100693.19
2018-04-11T22:44:43.735Z,100676.70
2018-04-11T22:47:11.328Z,100683.81
2018-04-11T22:49:38.950Z,100685.63
2018-04-11T22:52:06.548Z,100685.17
2018-04-11T22:54:34.191Z,100681.70
2018-04-11T22:57:02.117Z,100685.06
2018-04-11T22:59:29.740Z,100684.55
2018-04-11T23:01:57.749Z,100677.16
2018-04-11T23:04:25.424Z,100677.16
2018-04-11T23:06:53.477Z,100690.31
2018-04-11T23:09:21.117Z,100703.20
2018-04-11T23:11:48.820Z,100708.81
2018-04-11T23:14:17.090Z,100707.19
2018-04-11T23:16:45.051Z,100709.72
2018-04-11T23:19:13.129Z,100701.80
2018-04-11T23:21:40.740Z,100706.10
2018-04-11T23:24:08.390Z,100693.77
2018-04-11T23:26:36.166Z,100694.75
2018-04-11T23:29:03.742Z,100682.20
2018-04-11T23:31:31.322Z,100693.64
2018-04-11T23:33:59.010Z,100682.41
2018-04-11T23:36:26.586Z,100680.33
2018-04-11T23:38:54.247Z,100677.63
2018-04-11T23:41:22.194Z,100673.30
2018-04-11T23:43:49.860Z,100675.08
2018-04-11T23:46:17.468Z,100665.73
2018-04-11T23:48:45.452Z,100668.97
2018-04-11T23:51:13.103Z,100667.42
2018-04-11T23:53:40.911Z,100667.23
2018-04-11T23:56:08.562Z,100655.00
2018-04-11T23:58:36.220Z,100655.82
